Ana Sayfa
METAR-TAF:

METAR-TAF

Havaalanları :

Fitchburg, Massachusetts, Amerika Birleşik Devletleri

Enlem: 42-33-07N, Boylam: 071-45-21W, yükseklik: 106 m

Güncel hava durumu gözlemi

Rapor saat 20:52 UTC de 50 dakika önce yapıldı.
Sakin rüzgar
Sıcaklık 1°C
Nem 75%
Basınç 1028 hPa
Görüş mesafesi: 11.3 km
1300 ft yükseklikte çok bulutlu

METAR: KFIT 132052Z AUTO 00000KT 7SM OVC013 01/M03 A3035 RMK AO2 RAB19E30 SLP283 P0000 60000 T00061028 56019

Saat: 16:42 (21:42 UTC)


TAF: eksik

4.000'den fazla havaalanı için hava durumu gözlemleri ve tahminleri (METAR ve TAF raporları).

Kullanılabilir istasyonlar harita üzerinde sarı ve kırmızı noktalarla gösterilir.

İstasyonun adını görmek için fareyi noktanın üzerinde gezdirin.

Sonrasında hava gözlem ve tahminlerini görmek için tıklayın.

Haritayı değiştirmek için: yaklaştırmak için siyah artı işaretli yeşil düğmeye ve uzaklaştırmak için de eksi işaretli düğmeye hızla tıklayın; bitişik haritalar için yeşil okları kullanın.


METAR-TAF: